Weather at Penfield Airfield

Public forecast

Using degrees Celsius for public forecast. Weather courtesy of forecast.io.

Closest aviation weather report (METAR) to Penfield Airfield

Closest report is Melbourne International Airport, 11.8 nm (21.9 km) SE.

2024/06/20 19:00 (retrieved 27 minutes ago)

YMML 201900Z 33003KT 9999 FEW037 04/02 Q1019

Closest aviation forecast (TAF) to Penfield Airfield

Closest forecast is Melbourne International Airport, 11.8 nm (21.9 km) SE.

2024/06/20 18:51 (retrieved 36 minutes ago)

TAF YMML 201710Z 2018/2200 27005KT 9999 FEW040 FM202000 24005KT 9999 BKN040 FM210200 19010KT 9999 -SHRA SCT020 BKN030 FM211200 24007KT 9999 -SHRA SCT030 BKN040 INTER 2107/2111 5000 SHRA SCT015 BKN020